メインページ
METAR-TAF:

METAR-TAF

空港 :

チャーチル, マニトバ州, カナダ

緯度: 58-44N, 経度: 094-04W, 海抜: 28m

現時点の気象観測

当レポートは45分前の09:00(UTC)に作成
北/北西の風 19kt、最大25ktの突風を伴う
気温 -6°C
湿度 86%
気圧 1018 hPa
視程: 24.1km
高度1300ftの曇り
小雪

METAR: CYYQ 200900Z 34019G25KT 15SM -SN OVC013 M06/M08 A3007 RMK SC8 SLP187

時間: 04:45 (09:45 UTC)

予報

当レポートは4時間7分前の05:38(UTC)に作成
予報は20日の 06時(UTC)から 21日の 06時(UTC)まで有効
北/北西の風 20kt、最大30ktの突風を伴う
視程: 10km
高度1000ftの曇り
20日の 06時(UTC)から 20日の 12時(UTC)まで一時的に
視程: 6.4km
高度800ftの曇り
小雪
20日の 1200時(UTC)から
北/北西の風 15kt、最大25ktの突風を伴う
視程: 10km
高度800ftの千切れ雲あり
20日の 12時(UTC)から 20日の 18時(UTC)まで一時的に
高度1200ftの千切れ雲あり
20日の 1800時(UTC)から
北/北西の風 15kt
視程: 10km
高度800ftの雲は散在している
高度1200ftの千切れ雲あり
20日の 22時(UTC)から 20日の 24時(UTC)まで徐々に
の風 10kt
21日の 00時(UTC)から 21日の 02時(UTC)まで徐々に
変向風 3kt

TAF: CYYQ 200538Z 2006/2106 34020G30KT P6SM OVC010 TEMPO 2006/2012 4SM -SN OVC008 FM201200 33015G25KT P6SM BKN008 TEMPO 2012/2018 BKN012 FM201800 33015KT P6SM SCT008 BKN012 BECMG 2022/2024 36010KT BECMG 2100/2102 VRB03KT RMK NXT FCST BY 201200Z

4,000以上の空港の気象観測と天気予報(METAR報とTAF報)

利用可能な観測所は地図上に黄色い丸と赤い丸で示す。

丸の上にカーソルを重ねると観測所名を参照できる。

次にクリックすると気象観測と天気予報を参照できる。

マップの切り替え:黒色「×」印の緑ボタンをクリックして拡大、「-」印の緑ボタンをクリックして縮小、緑色の三角印をクリックして隣りの地図に切り替え


METAR-TAF: